sensor_id;sensor_type;location;lat;lon;timestamp;P1;durP1;ratioP1;P2;durP2;ratioP2
19519;SDS011;9904;52.246;20.898;2023-01-04T00:01:03;21.40;;;7.70;;
19519;SDS011;9904;52.246;20.898;2023-01-04T00:03:31;23.20;;;8.47;;
19519;SDS011;9904;52.246;20.898;2023-01-04T00:06:01;22.73;;;8.67;;
19519;SDS011;9904;52.246;20.898;2023-01-04T00:08:28;25.17;;;8.10;;
19519;SDS011;9904;52.246;20.898;2023-01-04T00:11:05;20.07;;;8.43;;
19519;SDS011;9904;52.246;20.898;2023-01-04T00:13:33;17.87;;;8.50;;
19519;SDS011;9904;52.246;20.898;2023-01-04T00:16:03;25.10;;;9.20;;
19519;SDS011;9904;52.246;20.898;2023-01-04T00:18:34;18.77;;;8.23;;
19519;SDS011;9904;52.246;20.898;2023-01-04T00:21:14;25.30;;;9.77;;
19519;SDS011;9904;52.246;20.898;2023-01-04T00:23:43;25.93;;;9.67;;
19519;SDS011;9904;52.246;20.898;2023-01-04T00:26:12;27.33;;;10.00;;
19519;SDS011;9904;52.246;20.898;2023-01-04T00:28:40;31.53;;;10.27;;
19519;SDS011;9904;52.246;20.898;2023-01-04T00:31:07;30.73;;;11.60;;
19519;SDS011;9904;52.246;20.898;2023-01-04T00:33:36;26.57;;;11.70;;
19519;SDS011;9904;52.246;20.898;2023-01-04T00:36:06;25.50;;;10.50;;
19519;SDS011;9904;52.246;20.898;2023-01-04T00:38:38;24.23;;;10.37;;
19519;SDS011;9904;52.246;20.898;2023-01-04T00:41:05;24.80;;;10.40;;
19519;SDS011;9904;52.246;20.898;2023-01-04T00:43:43;29.57;;;12.07;;
19519;SDS011;9904;52.246;20.898;2023-01-04T00:46:10;25.70;;;10.53;;
19519;SDS011;9904;52.246;20.898;2023-01-04T00:48:37;26.37;;;12.07;;
19519;SDS011;9904;52.246;20.898;2023-01-04T00:51:05;31.47;;;11.33;;
19519;SDS011;9904;52.246;20.898;2023-01-04T00:53:32;27.53;;;12.23;;
19519;SDS011;9904;52.246;20.898;2023-01-04T00:55:59;34.00;;;12.03;;
19519;SDS011;9904;52.246;20.898;2023-01-04T00:58:26;32.67;;;12.63;;
19519;SDS011;9904;52.246;20.898;2023-01-04T01:00:54;32.77;;;13.03;;
19519;SDS011;9904;52.246;20.898;2023-01-04T01:03:20;32.43;;;12.87;;
19519;SDS011;9904;52.246;20.898;2023-01-04T01:05:47;33.17;;;13.00;;
19519;SDS011;9904;52.246;20.898;2023-01-04T01:08:13;33.70;;;14.23;;
19519;SDS011;9904;52.246;20.898;2023-01-04T01:10:52;31.63;;;13.87;;
19519;SDS011;9904;52.246;20.898;2023-01-04T01:13:20;34.03;;;14.63;;
19519;SDS011;9904;52.246;20.898;2023-01-04T01:15:47;34.03;;;13.77;;
19519;SDS011;9904;52.246;20.898;2023-01-04T01:18:14;36.47;;;14.00;;
19519;SDS011;9904;52.246;20.898;2023-01-04T01:20:41;36.07;;;14.43;;
19519;SDS011;9904;52.246;20.898;2023-01-04T01:23:12;34.37;;;14.50;;
19519;SDS011;9904;52.246;20.898;2023-01-04T01:25:39;40.37;;;14.73;;
19519;SDS011;9904;52.246;20.898;2023-01-04T01:28:06;39.33;;;14.73;;
19519;SDS011;9904;52.246;20.898;2023-01-04T01:30:33;39.37;;;15.30;;
19519;SDS011;9904;52.246;20.898;2023-01-04T01:33:00;36.13;;;13.97;;
19519;SDS011;9904;52.246;20.898;2023-01-04T01:35:26;44.53;;;14.60;;
19519;SDS011;9904;52.246;20.898;2023-01-04T01:37:53;33.30;;;14.87;;
19519;SDS011;9904;52.246;20.898;2023-01-04T01:40:19;29.07;;;14.37;;
19519;SDS011;9904;52.246;20.898;2023-01-04T01:42:46;33.33;;;13.93;;
19519;SDS011;9904;52.246;20.898;2023-01-04T01:45:31;37.20;;;14.77;;
19519;SDS011;9904;52.246;20.898;2023-01-04T01:48:06;42.43;;;15.10;;
19519;SDS011;9904;52.246;20.898;2023-01-04T01:50:38;34.70;;;14.73;;
19519;SDS011;9904;52.246;20.898;2023-01-04T01:53:09;38.67;;;15.87;;
19519;SDS011;9904;52.246;20.898;2023-01-04T01:55:36;36.30;;;15.50;;
19519;SDS011;9904;52.246;20.898;2023-01-04T01:58:06;35.17;;;15.27;;
19519;SDS011;9904;52.246;20.898;2023-01-04T02:00:33;37.57;;;14.93;;
19519;SDS011;9904;52.246;20.898;2023-01-04T02:03:13;32.50;;;14.07;;
19519;SDS011;9904;52.246;20.898;2023-01-04T02:05:42;33.17;;;14.27;;
19519;SDS011;9904;52.246;20.898;2023-01-04T02:08:09;34.77;;;14.77;;
19519;SDS011;9904;52.246;20.898;2023-01-04T02:10:37;38.93;;;15.83;;
19519;SDS011;9904;52.246;20.898;2023-01-04T02:13:04;37.27;;;15.70;;
19519;SDS011;9904;52.246;20.898;2023-01-04T02:16:02;37.30;;;15.23;;
19519;SDS011;9904;52.246;20.898;2023-01-04T02:18:58;34.40;;;15.13;;
19519;SDS011;9904;52.246;20.898;2023-01-04T02:22:01;36.43;;;15.10;;
19519;SDS011;9904;52.246;20.898;2023-01-04T02:33:34;33.57;;;14.87;;
19519;SDS011;9904;52.246;20.898;2023-01-04T02:36:12;35.73;;;14.93;;
19519;SDS011;9904;52.246;20.898;2023-01-04T02:38:47;37.33;;;15.80;;
19519;SDS011;9904;52.246;20.898;2023-01-04T02:41:33;35.43;;;15.67;;
19519;SDS011;9904;52.246;20.898;2023-01-04T02:44:12;40.60;;;16.70;;
19519;SDS011;9904;52.246;20.898;2023-01-04T02:47:01;39.33;;;15.93;;
19519;SDS011;9904;52.246;20.898;2023-01-04T02:49:34;38.10;;;14.67;;
19519;SDS011;9904;52.246;20.898;2023-01-04T02:52:27;36.60;;;16.63;;
19519;SDS011;9904;52.246;20.898;2023-01-04T02:54:54;37.40;;;15.70;;
19519;SDS011;9904;52.246;20.898;2023-01-04T03:02:55;43.47;;;16.30;;
19519;SDS011;9904;52.246;20.898;2023-01-04T03:05:54;35.77;;;16.33;;
19519;SDS011;9904;52.246;20.898;2023-01-04T03:08:50;44.57;;;17.20;;
19519;SDS011;9904;52.246;20.898;2023-01-04T03:11:21;40.27;;;17.47;;
19519;SDS011;9904;52.246;20.898;2023-01-04T03:14:14;41.33;;;16.33;;
19519;SDS011;9904;52.246;20.898;2023-01-04T03:16:59;39.67;;;15.60;;
19519;SDS011;9904;52.246;20.898;2023-01-04T03:19:27;35.27;;;15.67;;
19519;SDS011;9904;52.246;20.898;2023-01-04T03:22:14;41.27;;;15.80;;
19519;SDS011;9904;52.246;20.898;2023-01-04T03:25:03;37.77;;;15.77;;
19519;SDS011;9904;52.246;20.898;2023-01-04T03:27:48;34.33;;;14.93;;
19519;SDS011;9904;52.246;20.898;2023-01-04T03:30:35;35.90;;;15.17;;
19519;SDS011;9904;52.246;20.898;2023-01-04T03:33:24;38.13;;;15.93;;
19519;SDS011;9904;52.246;20.898;2023-01-04T03:38:59;38.40;;;16.60;;
19519;SDS011;9904;52.246;20.898;2023-01-04T03:41:59;39.50;;;16.00;;
19519;SDS011;9904;52.246;20.898;2023-01-04T03:44:55;35.00;;;15.87;;
19519;SDS011;9904;52.246;20.898;2023-01-04T03:48:09;37.40;;;16.43;;
19519;SDS011;9904;52.246;20.898;2023-01-04T03:50:59;43.03;;;16.53;;
19519;SDS011;9904;52.246;20.898;2023-01-04T03:53:27;37.37;;;14.93;;
19519;SDS011;9904;52.246;20.898;2023-01-04T03:55:54;36.10;;;15.83;;
19519;SDS011;9904;52.246;20.898;2023-01-04T03:58:21;41.67;;;15.90;;
19519;SDS011;9904;52.246;20.898;2023-01-04T04:00:48;38.23;;;15.00;;
19519;SDS011;9904;52.246;20.898;2023-01-04T04:03:14;35.20;;;15.27;;
19519;SDS011;9904;52.246;20.898;2023-01-04T04:05:41;36.30;;;14.60;;
19519;SDS011;9904;52.246;20.898;2023-01-04T04:08:28;37.93;;;15.03;;
19519;SDS011;9904;52.246;20.898;2023-01-04T04:10:59;37.13;;;14.83;;
19519;SDS011;9904;52.246;20.898;2023-01-04T04:13:48;37.97;;;14.83;;
19519;SDS011;9904;52.246;20.898;2023-01-04T04:16:16;32.07;;;14.27;;
19519;SDS011;9904;52.246;20.898;2023-01-04T04:18:42;40.37;;;14.50;;
19519;SDS011;9904;52.246;20.898;2023-01-04T04:21:09;34.97;;;14.60;;
19519;SDS011;9904;52.246;20.898;2023-01-04T04:23:35;37.83;;;15.67;;
19519;SDS011;9904;52.246;20.898;2023-01-04T04:26:02;37.87;;;15.13;;
19519;SDS011;9904;52.246;20.898;2023-01-04T04:28:29;38.00;;;14.90;;
19519;SDS011;9904;52.246;20.898;2023-01-04T04:30:55;37.07;;;15.17;;
19519;SDS011;9904;52.246;20.898;2023-01-04T04:33:22;43.47;;;15.60;;
19519;SDS011;9904;52.246;20.898;2023-01-04T04:35:49;36.27;;;15.20;;
19519;SDS011;9904;52.246;20.898;2023-01-04T04:38:19;39.50;;;15.13;;
19519;SDS011;9904;52.246;20.898;2023-01-04T04:40:46;36.83;;;15.27;;
19519;SDS011;9904;52.246;20.898;2023-01-04T04:43:37;30.03;;;14.90;;
19519;SDS011;9904;52.246;20.898;2023-01-04T04:46:03;36.07;;;15.43;;
19519;SDS011;9904;52.246;20.898;2023-01-04T04:48:30;36.73;;;16.20;;
19519;SDS011;9904;52.246;20.898;2023-01-04T04:50:56;47.20;;;16.73;;
19519;SDS011;9904;52.246;20.898;2023-01-04T04:53:23;40.60;;;16.00;;
19519;SDS011;9904;52.246;20.898;2023-01-04T04:55:50;42.37;;;16.40;;
19519;SDS011;9904;52.246;20.898;2023-01-04T04:58:17;34.23;;;13.93;;
19519;SDS011;9904;52.246;20.898;2023-01-04T05:00:44;37.80;;;16.17;;
19519;SDS011;9904;52.246;20.898;2023-01-04T05:03:11;40.23;;;15.23;;
19519;SDS011;9904;52.246;20.898;2023-01-04T05:05:37;33.90;;;15.13;;
19519;SDS011;9904;52.246;20.898;2023-01-04T05:08:04;40.40;;;15.23;;
19519;SDS011;9904;52.246;20.898;2023-01-04T05:10:30;39.70;;;16.53;;
19519;SDS011;9904;52.246;20.898;2023-01-04T05:12:57;39.30;;;15.70;;
19519;SDS011;9904;52.246;20.898;2023-01-04T05:15:30;45.23;;;16.17;;
19519;SDS011;9904;52.246;20.898;2023-01-04T05:18:00;36.47;;;15.40;;
19519;SDS011;9904;52.246;20.898;2023-01-04T05:20:27;37.40;;;16.33;;
19519;SDS011;9904;52.246;20.898;2023-01-04T05:22:54;43.23;;;16.43;;
19519;SDS011;9904;52.246;20.898;2023-01-04T05:25:20;41.57;;;17.23;;
19519;SDS011;9904;52.246;20.898;2023-01-04T05:27:47;38.30;;;17.10;;
19519;SDS011;9904;52.246;20.898;2023-01-04T05:30:14;38.10;;;15.97;;
19519;SDS011;9904;52.246;20.898;2023-01-04T05:33:01;38.27;;;16.80;;
19519;SDS011;9904;52.246;20.898;2023-01-04T05:35:28;44.27;;;16.83;;
19519;SDS011;9904;52.246;20.898;2023-01-04T05:37:55;39.63;;;17.00;;
19519;SDS011;9904;52.246;20.898;2023-01-04T05:40:21;41.27;;;17.07;;
19519;SDS011;9904;52.246;20.898;2023-01-04T05:42:48;41.67;;;18.47;;
19519;SDS011;9904;52.246;20.898;2023-01-04T05:45:15;48.47;;;17.47;;
19519;SDS011;9904;52.246;20.898;2023-01-04T05:47:42;39.17;;;16.93;;
19519;SDS011;9904;52.246;20.898;2023-01-04T05:50:09;41.10;;;17.37;;
19519;SDS011;9904;52.246;20.898;2023-01-04T05:52:35;46.57;;;18.57;;
19519;SDS011;9904;52.246;20.898;2023-01-04T05:55:02;45.87;;;18.13;;
19519;SDS011;9904;52.246;20.898;2023-01-04T05:57:29;47.53;;;18.20;;
19519;SDS011;9904;52.246;20.898;2023-01-04T05:59:56;53.80;;;18.97;;
19519;SDS011;9904;52.246;20.898;2023-01-04T06:02:23;54.07;;;18.60;;
19519;SDS011;9904;52.246;20.898;2023-01-04T06:04:51;46.63;;;17.93;;
19519;SDS011;9904;52.246;20.898;2023-01-04T06:07:24;48.20;;;18.90;;
19519;SDS011;9904;52.246;20.898;2023-01-04T06:09:51;51.03;;;19.00;;
19519;SDS011;9904;52.246;20.898;2023-01-04T06:12:17;47.93;;;18.60;;
19519;SDS011;9904;52.246;20.898;2023-01-04T06:14:44;45.07;;;19.27;;
19519;SDS011;9904;52.246;20.898;2023-01-04T06:17:11;48.97;;;18.73;;
19519;SDS011;9904;52.246;20.898;2023-01-04T06:19:37;48.93;;;19.10;;
19519;SDS011;9904;52.246;20.898;2023-01-04T06:22:04;43.87;;;18.10;;
19519;SDS011;9904;52.246;20.898;2023-01-04T06:24:32;50.40;;;20.27;;
19519;SDS011;9904;52.246;20.898;2023-01-04T06:27:02;50.13;;;18.97;;
19519;SDS011;9904;52.246;20.898;2023-01-04T06:29:29;52.77;;;20.23;;
19519;SDS011;9904;52.246;20.898;2023-01-04T06:31:55;46.87;;;18.90;;
19519;SDS011;9904;52.246;20.898;2023-01-04T06:34:22;60.67;;;19.40;;
19519;SDS011;9904;52.246;20.898;2023-01-04T06:36:55;52.07;;;19.00;;
19519;SDS011;9904;52.246;20.898;2023-01-04T06:39:22;48.57;;;18.93;;
19519;SDS011;9904;52.246;20.898;2023-01-04T06:41:49;41.63;;;18.73;;
19519;SDS011;9904;52.246;20.898;2023-01-04T06:44:15;48.17;;;18.83;;
19519;SDS011;9904;52.246;20.898;2023-01-04T06:46:42;44.97;;;18.33;;
19519;SDS011;9904;52.246;20.898;2023-01-04T06:49:08;42.53;;;17.33;;
19519;SDS011;9904;52.246;20.898;2023-01-04T06:51:35;40.00;;;17.07;;
19519;SDS011;9904;52.246;20.898;2023-01-04T06:54:02;43.70;;;17.37;;
19519;SDS011;9904;52.246;20.898;2023-01-04T06:56:28;46.67;;;18.50;;
19519;SDS011;9904;52.246;20.898;2023-01-04T06:58:57;41.77;;;19.00;;
19519;SDS011;9904;52.246;20.898;2023-01-04T07:01:24;45.77;;;18.30;;
19519;SDS011;9904;52.246;20.898;2023-01-04T07:03:51;38.87;;;17.63;;
19519;SDS011;9904;52.246;20.898;2023-01-04T07:06:20;46.37;;;17.83;;
19519;SDS011;9904;52.246;20.898;2023-01-04T07:08:47;50.20;;;18.63;;
19519;SDS011;9904;52.246;20.898;2023-01-04T07:11:14;46.97;;;19.77;;
19519;SDS011;9904;52.246;20.898;2023-01-04T07:13:41;48.30;;;18.93;;
19519;SDS011;9904;52.246;20.898;2023-01-04T07:16:07;40.37;;;18.07;;
19519;SDS011;9904;52.246;20.898;2023-01-04T07:18:34;46.30;;;18.23;;
19519;SDS011;9904;52.246;20.898;2023-01-04T07:21:01;43.57;;;18.97;;
19519;SDS011;9904;52.246;20.898;2023-01-04T07:23:28;57.83;;;21.13;;
19519;SDS011;9904;52.246;20.898;2023-01-04T07:25:55;47.63;;;20.43;;
19519;SDS011;9904;52.246;20.898;2023-01-04T07:28:26;51.87;;;19.13;;
19519;SDS011;9904;52.246;20.898;2023-01-04T07:31:11;46.03;;;19.20;;
19519;SDS011;9904;52.246;20.898;2023-01-04T07:33:38;57.97;;;21.90;;
19519;SDS011;9904;52.246;20.898;2023-01-04T07:36:05;45.47;;;19.17;;
19519;SDS011;9904;52.246;20.898;2023-01-04T07:38:32;52.50;;;20.00;;
19519;SDS011;9904;52.246;20.898;2023-01-04T07:40:59;57.57;;;21.57;;
19519;SDS011;9904;52.246;20.898;2023-01-04T07:43:26;57.53;;;20.93;;
19519;SDS011;9904;52.246;20.898;2023-01-04T07:45:54;50.80;;;21.50;;
19519;SDS011;9904;52.246;20.898;2023-01-04T07:48:20;49.97;;;20.83;;
19519;SDS011;9904;52.246;20.898;2023-01-04T07:50:48;44.10;;;19.70;;
19519;SDS011;9904;52.246;20.898;2023-01-04T07:53:15;48.27;;;19.03;;
19519;SDS011;9904;52.246;20.898;2023-01-04T07:55:42;49.90;;;20.27;;
19519;SDS011;9904;52.246;20.898;2023-01-04T07:58:08;47.70;;;19.20;;
19519;SDS011;9904;52.246;20.898;2023-01-04T08:00:35;54.60;;;20.03;;
19519;SDS011;9904;52.246;20.898;2023-01-04T08:03:01;54.43;;;19.17;;
19519;SDS011;9904;52.246;20.898;2023-01-04T08:05:32;48.83;;;19.50;;
19519;SDS011;9904;52.246;20.898;2023-01-04T08:07:59;48.40;;;19.47;;
19519;SDS011;9904;52.246;20.898;2023-01-04T08:10:26;43.97;;;19.97;;
19519;SDS011;9904;52.246;20.898;2023-01-04T08:12:53;48.07;;;19.53;;
19519;SDS011;9904;52.246;20.898;2023-01-04T08:15:19;44.03;;;19.50;;
19519;SDS011;9904;52.246;20.898;2023-01-04T08:17:46;48.03;;;19.73;;
19519;SDS011;9904;52.246;20.898;2023-01-04T08:20:13;48.20;;;19.77;;
19519;SDS011;9904;52.246;20.898;2023-01-04T08:22:39;48.17;;;20.40;;
19519;SDS011;9904;52.246;20.898;2023-01-04T08:25:06;51.80;;;19.70;;
19519;SDS011;9904;52.246;20.898;2023-01-04T08:27:33;50.90;;;21.63;;
19519;SDS011;9904;52.246;20.898;2023-01-04T08:29:59;44.70;;;20.53;;
19519;SDS011;9904;52.246;20.898;2023-01-04T08:32:26;47.10;;;21.03;;
19519;SDS011;9904;52.246;20.898;2023-01-04T08:34:53;40.10;;;18.67;;
19519;SDS011;9904;52.246;20.898;2023-01-04T08:37:20;48.00;;;19.97;;
19519;SDS011;9904;52.246;20.898;2023-01-04T08:39:46;45.40;;;19.60;;
19519;SDS011;9904;52.246;20.898;2023-01-04T08:42:15;54.33;;;21.37;;
19519;SDS011;9904;52.246;20.898;2023-01-04T08:44:55;52.77;;;19.70;;
19519;SDS011;9904;52.246;20.898;2023-01-04T08:47:27;48.93;;;20.93;;
19519;SDS011;9904;52.246;20.898;2023-01-04T08:50:01;49.70;;;21.67;;
19519;SDS011;9904;52.246;20.898;2023-01-04T08:52:36;42.63;;;19.17;;
19519;SDS011;9904;52.246;20.898;2023-01-04T08:55:03;43.57;;;18.70;;
19519;SDS011;9904;52.246;20.898;2023-01-04T08:57:39;42.70;;;18.37;;
19519;SDS011;9904;52.246;20.898;2023-01-04T09:00:06;36.13;;;15.70;;
19519;SDS011;9904;52.246;20.898;2023-01-04T09:02:33;47.40;;;15.77;;
19519;SDS011;9904;52.246;20.898;2023-01-04T09:05:00;33.40;;;15.63;;
19519;SDS011;9904;52.246;20.898;2023-01-04T09:07:29;34.27;;;15.27;;
19519;SDS011;9904;52.246;20.898;2023-01-04T09:09:56;33.80;;;16.23;;
19519;SDS011;9904;52.246;20.898;2023-01-04T09:12:23;34.73;;;15.50;;
19519;SDS011;9904;52.246;20.898;2023-01-04T09:14:50;35.77;;;15.00;;
19519;SDS011;9904;52.246;20.898;2023-01-04T09:17:16;30.87;;;14.97;;
19519;SDS011;9904;52.246;20.898;2023-01-04T09:19:45;32.37;;;13.77;;
19519;SDS011;9904;52.246;20.898;2023-01-04T09:22:11;26.17;;;14.00;;
19519;SDS011;9904;52.246;20.898;2023-01-04T09:24:42;27.53;;;13.73;;
19519;SDS011;9904;52.246;20.898;2023-01-04T09:27:10;25.37;;;13.90;;
19519;SDS011;9904;52.246;20.898;2023-01-04T09:29:37;32.37;;;14.17;;
19519;SDS011;9904;52.246;20.898;2023-01-04T09:32:03;29.00;;;14.60;;
19519;SDS011;9904;52.246;20.898;2023-01-04T09:34:30;35.40;;;15.57;;
19519;SDS011;9904;52.246;20.898;2023-01-04T09:36:57;42.00;;;16.93;;
19519;SDS011;9904;52.246;20.898;2023-01-04T09:39:23;39.77;;;15.47;;
19519;SDS011;9904;52.246;20.898;2023-01-04T09:41:58;36.80;;;15.27;;
19519;SDS011;9904;52.246;20.898;2023-01-04T09:44:31;34.40;;;14.20;;
19519;SDS011;9904;52.246;20.898;2023-01-04T09:50:05;33.17;;;14.40;;
19519;SDS011;9904;52.246;20.898;2023-01-04T09:55:08;34.10;;;14.00;;
19519;SDS011;9904;52.246;20.898;2023-01-04T09:58:01;29.50;;;13.67;;
19519;SDS011;9904;52.246;20.898;2023-01-04T10:00:33;30.57;;;14.27;;
19519;SDS011;9904;52.246;20.898;2023-01-04T10:05:43;35.30;;;13.30;;
19519;SDS011;9904;52.246;20.898;2023-01-04T10:08:19;34.30;;;13.73;;
19519;SDS011;9904;52.246;20.898;2023-01-04T10:10:51;32.77;;;13.30;;
19519;SDS011;9904;52.246;20.898;2023-01-04T10:13:26;27.97;;;12.57;;
19519;SDS011;9904;52.246;20.898;2023-01-04T10:16:07;29.77;;;13.10;;
19519;SDS011;9904;52.246;20.898;2023-01-04T10:35:35;29.70;;;12.20;;
19519;SDS011;9904;52.246;20.898;2023-01-04T10:38:03;24.47;;;11.60;;
19519;SDS011;9904;52.246;20.898;2023-01-04T10:40:36;26.13;;;12.57;;
19519;SDS011;9904;52.246;20.898;2023-01-04T10:51:02;31.47;;;15.17;;
19519;SDS011;9904;52.246;20.898;2023-01-04T10:53:40;33.83;;;13.67;;
19519;SDS011;9904;52.246;20.898;2023-01-04T11:01:27;27.77;;;13.43;;
19519;SDS011;9904;52.246;20.898;2023-01-04T11:04:43;27.27;;;12.50;;
19519;SDS011;9904;52.246;20.898;2023-01-04T11:07:15;31.27;;;12.40;;
19519;SDS011;9904;52.246;20.898;2023-01-04T11:12:16;30.37;;;14.23;;
19519;SDS011;9904;52.246;20.898;2023-01-04T11:14:45;29.73;;;14.40;;
19519;SDS011;9904;52.246;20.898;2023-01-04T11:17:12;32.80;;;14.40;;
19519;SDS011;9904;52.246;20.898;2023-01-04T11:19:39;35.03;;;15.00;;
19519;SDS011;9904;52.246;20.898;2023-01-04T11:25:12;32.20;;;14.80;;
19519;SDS011;9904;52.246;20.898;2023-01-04T11:28:22;34.10;;;14.80;;
19519;SDS011;9904;52.246;20.898;2023-01-04T11:33:50;35.93;;;14.23;;
19519;SDS011;9904;52.246;20.898;2023-01-04T11:39:05;37.23;;;15.80;;
19519;SDS011;9904;52.246;20.898;2023-01-04T11:41:52;34.53;;;15.60;;
19519;SDS011;9904;52.246;20.898;2023-01-04T11:44:29;31.40;;;15.53;;
19519;SDS011;9904;52.246;20.898;2023-01-04T11:49:58;39.97;;;15.23;;
19519;SDS011;9904;52.246;20.898;2023-01-04T11:52:34;35.30;;;15.63;;
19519;SDS011;9904;52.246;20.898;2023-01-04T11:55:15;40.40;;;16.13;;
19519;SDS011;9904;52.246;20.898;2023-01-04T11:58:09;36.80;;;15.67;;
19519;SDS011;9904;52.246;20.898;2023-01-04T12:00:38;33.23;;;15.73;;
19519;SDS011;9904;52.246;20.898;2023-01-04T12:03:16;33.53;;;15.27;;
19519;SDS011;9904;52.246;20.898;2023-01-04T12:05:44;35.20;;;15.33;;
19519;SDS011;9904;52.246;20.898;2023-01-04T12:08:26;36.00;;;16.03;;
19519;SDS011;9904;52.246;20.898;2023-01-04T12:10:57;35.07;;;15.47;;
19519;SDS011;9904;52.246;20.898;2023-01-04T12:13:24;36.33;;;16.33;;
19519;SDS011;9904;52.246;20.898;2023-01-04T12:18:33;36.47;;;16.47;;
19519;SDS011;9904;52.246;20.898;2023-01-04T12:21:01;33.50;;;15.60;;
19519;SDS011;9904;52.246;20.898;2023-01-04T12:23:28;41.97;;;16.17;;
19519;SDS011;9904;52.246;20.898;2023-01-04T12:25:55;37.47;;;15.97;;
19519;SDS011;9904;52.246;20.898;2023-01-04T12:28:29;34.70;;;15.27;;
19519;SDS011;9904;52.246;20.898;2023-01-04T12:50:10;33.23;;;15.17;;
19519;SDS011;9904;52.246;20.898;2023-01-04T13:01:22;32.93;;;16.70;;
19519;SDS011;9904;52.246;20.898;2023-01-04T13:03:53;37.00;;;16.83;;
19519;SDS011;9904;52.246;20.898;2023-01-04T13:06:30;42.23;;;18.10;;
19519;SDS011;9904;52.246;20.898;2023-01-04T13:09:00;39.70;;;18.33;;
19519;SDS011;9904;52.246;20.898;2023-01-04T13:11:35;34.13;;;17.13;;
19519;SDS011;9904;52.246;20.898;2023-01-04T13:14:25;38.70;;;16.23;;
19519;SDS011;9904;52.246;20.898;2023-01-04T13:17:02;44.33;;;17.03;;
19519;SDS011;9904;52.246;20.898;2023-01-04T13:19:37;34.73;;;17.17;;
19519;SDS011;9904;52.246;20.898;2023-01-04T13:22:07;45.20;;;18.37;;
19519;SDS011;9904;52.246;20.898;2023-01-04T13:24:42;36.23;;;17.30;;
19519;SDS011;9904;52.246;20.898;2023-01-04T13:27:14;40.43;;;17.77;;
19519;SDS011;9904;52.246;20.898;2023-01-04T13:29:48;37.83;;;18.80;;
19519;SDS011;9904;52.246;20.898;2023-01-04T13:32:19;38.07;;;17.43;;
19519;SDS011;9904;52.246;20.898;2023-01-04T13:34:55;34.60;;;16.63;;
19519;SDS011;9904;52.246;20.898;2023-01-04T13:37:43;40.37;;;17.17;;
19519;SDS011;9904;52.246;20.898;2023-01-04T13:45:45;38.90;;;15.87;;
19519;SDS011;9904;52.246;20.898;2023-01-04T13:48:17;37.30;;;17.00;;
19519;SDS011;9904;52.246;20.898;2023-01-04T13:50:59;38.73;;;17.30;;
19519;SDS011;9904;52.246;20.898;2023-01-04T13:53:28;31.00;;;15.97;;
19519;SDS011;9904;52.246;20.898;2023-01-04T13:55:56;38.33;;;15.87;;
19519;SDS011;9904;52.246;20.898;2023-01-04T13:58:25;34.57;;;15.43;;
19519;SDS011;9904;52.246;20.898;2023-01-04T14:01:05;33.03;;;14.63;;
19519;SDS011;9904;52.246;20.898;2023-01-04T14:03:40;34.70;;;16.23;;
19519;SDS011;9904;52.246;20.898;2023-01-04T14:11:26;41.23;;;15.27;;
19519;SDS011;9904;52.246;20.898;2023-01-04T14:14:18;37.00;;;15.20;;
19519;SDS011;9904;52.246;20.898;2023-01-04T14:16:49;37.73;;;13.87;;
19519;SDS011;9904;52.246;20.898;2023-01-04T14:19:26;29.60;;;13.47;;
19519;SDS011;9904;52.246;20.898;2023-01-04T14:21:57;38.60;;;14.50;;
19519;SDS011;9904;52.246;20.898;2023-01-04T14:24:31;37.53;;;14.13;;
19519;SDS011;9904;52.246;20.898;2023-01-04T14:30:00;31.47;;;13.23;;
19519;SDS011;9904;52.246;20.898;2023-01-04T14:33:01;33.20;;;13.83;;
19519;SDS011;9904;52.246;20.898;2023-01-04T14:35:38;36.17;;;13.47;;
19519;SDS011;9904;52.246;20.898;2023-01-04T14:38:14;32.63;;;13.67;;
19519;SDS011;9904;52.246;20.898;2023-01-04T14:40:43;30.00;;;12.47;;
19519;SDS011;9904;52.246;20.898;2023-01-04T14:46:00;32.27;;;12.83;;
19519;SDS011;9904;52.246;20.898;2023-01-04T14:48:28;29.97;;;11.97;;
19519;SDS011;9904;52.246;20.898;2023-01-04T14:50:55;27.20;;;12.30;;
19519;SDS011;9904;52.246;20.898;2023-01-04T14:53:22;28.47;;;11.73;;
19519;SDS011;9904;52.246;20.898;2023-01-04T14:55:50;27.03;;;12.57;;
19519;SDS011;9904;52.246;20.898;2023-01-04T14:58:16;30.00;;;12.13;;
19519;SDS011;9904;52.246;20.898;2023-01-04T15:00:43;28.23;;;12.37;;
19519;SDS011;9904;52.246;20.898;2023-01-04T15:03:10;25.07;;;12.83;;
19519;SDS011;9904;52.246;20.898;2023-01-04T15:05:36;25.43;;;12.60;;
19519;SDS011;9904;52.246;20.898;2023-01-04T15:08:03;27.70;;;11.80;;
19519;SDS011;9904;52.246;20.898;2023-01-04T15:10:30;27.10;;;12.60;;
19519;SDS011;9904;52.246;20.898;2023-01-04T15:12:56;31.10;;;12.27;;
19519;SDS011;9904;52.246;20.898;2023-01-04T15:15:25;32.33;;;12.43;;
19519;SDS011;9904;52.246;20.898;2023-01-04T15:17:52;28.63;;;11.83;;
19519;SDS011;9904;52.246;20.898;2023-01-04T15:20:18;26.87;;;12.70;;
19519;SDS011;9904;52.246;20.898;2023-01-04T15:22:45;34.90;;;13.47;;
19519;SDS011;9904;52.246;20.898;2023-01-04T15:25:11;32.43;;;13.20;;
19519;SDS011;9904;52.246;20.898;2023-01-04T15:27:38;28.77;;;13.53;;
19519;SDS011;9904;52.246;20.898;2023-01-04T15:30:08;26.27;;;12.63;;
19519;SDS011;9904;52.246;20.898;2023-01-04T15:32:39;28.97;;;13.53;;
19519;SDS011;9904;52.246;20.898;2023-01-04T15:35:06;30.13;;;12.27;;
19519;SDS011;9904;52.246;20.898;2023-01-04T15:37:34;31.60;;;13.20;;
19519;SDS011;9904;52.246;20.898;2023-01-04T15:40:01;27.20;;;12.17;;
19519;SDS011;9904;52.246;20.898;2023-01-04T15:42:29;32.50;;;12.90;;
19519;SDS011;9904;52.246;20.898;2023-01-04T15:45:15;27.97;;;13.47;;
19519;SDS011;9904;52.246;20.898;2023-01-04T15:47:41;28.97;;;12.97;;
19519;SDS011;9904;52.246;20.898;2023-01-04T15:50:08;29.03;;;12.13;;
19519;SDS011;9904;52.246;20.898;2023-01-04T15:52:35;29.70;;;12.03;;
19519;SDS011;9904;52.246;20.898;2023-01-04T15:55:02;27.93;;;12.00;;
19519;SDS011;9904;52.246;20.898;2023-01-04T15:57:29;30.67;;;11.90;;
19519;SDS011;9904;52.246;20.898;2023-01-04T15:59:56;25.77;;;11.23;;
19519;SDS011;9904;52.246;20.898;2023-01-04T16:02:22;29.73;;;11.87;;
19519;SDS011;9904;52.246;20.898;2023-01-04T16:04:49;23.90;;;10.60;;
19519;SDS011;9904;52.246;20.898;2023-01-04T16:07:16;24.23;;;10.83;;
19519;SDS011;9904;52.246;20.898;2023-01-04T16:09:43;19.83;;;10.47;;
19519;SDS011;9904;52.246;20.898;2023-01-04T16:12:09;29.63;;;11.17;;
19519;SDS011;9904;52.246;20.898;2023-01-04T16:14:54;21.03;;;10.40;;
19519;SDS011;9904;52.246;20.898;2023-01-04T16:17:21;22.10;;;9.57;;
19519;SDS011;9904;52.246;20.898;2023-01-04T16:19:48;26.17;;;9.23;;
19519;SDS011;9904;52.246;20.898;2023-01-04T16:22:14;20.60;;;8.50;;
19519;SDS011;9904;52.246;20.898;2023-01-04T16:24:41;22.83;;;9.60;;
19519;SDS011;9904;52.246;20.898;2023-01-04T16:27:29;17.73;;;9.50;;
19519;SDS011;9904;52.246;20.898;2023-01-04T16:30:01;17.10;;;8.43;;
19519;SDS011;9904;52.246;20.898;2023-01-04T16:32:28;17.97;;;8.10;;
19519;SDS011;9904;52.246;20.898;2023-01-04T16:34:55;17.83;;;8.13;;
19519;SDS011;9904;52.246;20.898;2023-01-04T16:37:25;17.87;;;7.23;;
19519;SDS011;9904;52.246;20.898;2023-01-04T16:39:55;22.97;;;7.73;;
19519;SDS011;9904;52.246;20.898;2023-01-04T16:42:32;18.63;;;7.97;;
19519;SDS011;9904;52.246;20.898;2023-01-04T16:44:59;15.87;;;7.60;;